createdAt,value
2018-04-12T00:00:24.689Z,9.03
2018-04-12T00:01:28.884Z,8.97
2018-04-12T00:02:33.449Z,8.96
2018-04-12T00:03:37.677Z,9.02
2018-04-12T00:04:41.879Z,9.03
2018-04-12T00:05:46.060Z,9.06
2018-04-12T00:06:50.251Z,9.03
2018-04-12T00:07:54.515Z,9.03
2018-04-12T00:08:58.688Z,9.11
2018-04-12T00:10:03.013Z,9.11
2018-04-12T00:11:07.219Z,9.10
2018-04-12T00:12:11.381Z,9.12
2018-04-12T00:13:15.563Z,9.10
2018-04-12T00:14:20.151Z,9.24
2018-04-12T00:15:24.854Z,9.43
2018-04-12T00:16:29.188Z,9.51
2018-04-12T00:17:33.368Z,9.50
2018-04-12T00:18:37.537Z,9.55
2018-04-12T00:19:41.728Z,9.45
2018-04-12T00:20:46.194Z,9.32
2018-04-12T00:21:50.343Z,9.32
2018-04-12T00:22:54.488Z,9.37
2018-04-12T00:23:59.605Z,9.37
2018-04-12T00:25:03.908Z,9.37
2018-04-12T00:26:08.150Z,9.38
2018-04-12T00:27:12.624Z,9.40
2018-04-12T00:28:16.892Z,9.45
2018-04-12T00:29:22.007Z,9.52
2018-04-12T00:30:26.587Z,9.50
2018-04-12T00:31:30.791Z,9.48
2018-04-12T00:32:34.972Z,9.48
2018-04-12T00:33:39.121Z,9.39
2018-04-12T00:34:43.352Z,9.37
2018-04-12T00:35:47.527Z,9.37
2018-04-12T00:36:51.805Z,9.42
2018-04-12T00:37:56.984Z,9.54
2018-04-12T00:39:01.152Z,9.54
2018-04-12T00:40:05.649Z,9.56
2018-04-12T00:41:09.899Z,9.57
2018-04-12T00:42:14.082Z,9.57
2018-04-12T00:43:18.273Z,9.55
2018-04-12T00:44:22.446Z,9.51
2018-04-12T00:45:26.939Z,9.44
2018-04-12T00:46:31.491Z,9.48
2018-04-12T00:47:35.747Z,9.47
2018-04-12T00:48:39.910Z,9.44
2018-04-12T00:49:44.090Z,9.44
2018-04-12T00:50:48.343Z,9.53
2018-04-12T00:51:52.495Z,9.51
2018-04-12T00:52:58.225Z,9.48
2018-04-12T00:54:06.361Z,9.46
2018-04-12T00:55:10.592Z,9.50
2018-04-12T00:56:14.863Z,9.49
2018-04-12T00:57:19.106Z,9.44
2018-04-12T00:58:23.558Z,9.36
2018-04-12T00:59:27.710Z,9.35
2018-04-12T01:00:32.311Z,9.42
2018-04-12T01:01:37.023Z,9.32
2018-04-12T01:02:41.612Z,9.24
2018-04-12T01:03:45.783Z,9.31
2018-04-12T01:04:50.275Z,9.29
2018-04-12T01:05:54.487Z,9.28
2018-04-12T01:06:59.317Z,9.31
2018-04-12T01:08:03.539Z,9.38
2018-04-12T01:09:07.735Z,9.48
2018-04-12T01:10:11.892Z,9.47
2018-04-12T01:11:16.439Z,9.45
2018-04-12T01:12:20.652Z,9.44
2018-04-12T01:13:24.792Z,9.36
2018-04-12T01:14:29.095Z,9.42
2018-04-12T01:15:33.260Z,9.43
2018-04-12T01:16:37.468Z,9.40
2018-04-12T01:17:41.945Z,9.35
2018-04-12T01:18:46.248Z,9.27
2018-04-12T01:19:50.548Z,9.27
2018-04-12T01:20:54.833Z,9.18
2018-04-12T01:22:00.267Z,9.09
2018-04-12T01:23:04.504Z,9.05
2018-04-12T01:24:08.668Z,9.01
2018-04-12T01:25:12.942Z,8.97
2018-04-12T03:02:53.181Z,7.65
2018-04-12T03:03:57.424Z,7.68
2018-04-12T03:05:01.562Z,7.63
2018-04-12T03:06:06.690Z,7.64
2018-04-12T03:07:11.276Z,7.61
2018-04-12T03:08:15.598Z,7.59
2018-04-12T03:09:20.298Z,7.58
2018-04-12T03:10:24.464Z,7.56
2018-04-12T03:11:28.580Z,7.57
2018-04-12T03:12:32.876Z,7.59
2018-04-12T03:13:37.307Z,7.60
2018-04-12T03:14:41.579Z,7.59
2018-04-12T03:15:46.050Z,7.60
2018-04-12T03:16:50.185Z,7.62
2018-04-12T03:17:54.288Z,7.53
2018-04-12T03:18:58.420Z,7.51
2018-04-12T03:20:03.570Z,7.43
2018-04-12T03:21:08.608Z,7.32
2018-04-12T03:22:12.727Z,7.32
2018-04-12T03:23:16.818Z,7.28
2018-04-12T03:24:21.024Z,7.27
2018-04-12T03:25:25.308Z,7.25
2018-04-12T03:26:29.415Z,7.24
2018-04-12T03:27:33.660Z,7.22
2018-04-12T03:28:37.772Z,7.17
2018-04-12T03:29:42.534Z,7.17
2018-04-12T03:30:47.216Z,7.14
2018-04-12T03:31:51.782Z,7.07
2018-04-12T03:32:56.212Z,6.99
2018-04-12T03:34:00.316Z,6.99
2018-04-12T03:36:19.536Z,7.04
2018-04-12T03:37:23.624Z,6.94
2018-04-12T03:38:27.831Z,6.91
2018-04-12T03:39:31.979Z,6.92
2018-04-12T03:40:36.237Z,6.97
2018-04-12T03:41:40.413Z,7.02
2018-04-12T03:42:44.641Z,7.00
2018-04-12T03:43:49.857Z,7.00
2018-04-12T03:44:54.003Z,7.04
2018-04-12T03:45:58.657Z,7.18
2018-04-12T03:47:02.757Z,7.25
2018-04-12T03:48:07.849Z,7.39
2018-04-12T03:49:12.915Z,7.59
2018-04-12T03:50:17.062Z,7.69
2018-04-12T03:51:21.182Z,7.81
2018-04-12T03:52:25.726Z,7.85
2018-04-12T03:53:29.870Z,7.85
2018-04-12T03:54:34.121Z,7.89
2018-04-12T03:55:38.337Z,7.97
2018-04-12T03:56:42.806Z,8.02
2018-04-12T03:57:46.973Z,7.97
2018-04-12T03:58:51.721Z,7.93
2018-04-12T03:59:55.963Z,7.94
2018-04-12T04:01:00.089Z,8.00
2018-04-12T04:02:04.295Z,8.10
2018-04-12T04:03:08.429Z,8.17
2018-04-12T04:04:13.050Z,8.21
2018-04-12T04:05:17.607Z,8.23
2018-04-12T04:06:21.708Z,8.24
2018-04-12T04:07:25.880Z,8.23
2018-04-12T04:08:30.029Z,8.20
2018-04-12T04:09:34.144Z,8.20
2018-04-12T04:10:38.265Z,8.23
2018-04-12T04:11:42.418Z,8.22
2018-04-12T04:12:47.229Z,8.23
2018-04-12T04:13:51.915Z,8.24
2018-04-12T04:15:05.293Z,8.24
2018-04-12T04:18:22.570Z,8.19
2018-04-12T04:21:33.990Z,8.28
2018-04-12T04:22:38.195Z,8.19
2018-04-12T04:23:42.836Z,8.10
2018-04-12T04:24:46.939Z,8.05
2018-04-12T04:25:52.283Z,8.05
2018-04-12T04:26:56.655Z,8.00
2018-04-12T04:28:01.124Z,7.98
2018-04-12T04:29:05.338Z,7.98
2018-04-12T04:30:09.763Z,7.94
2018-04-12T04:31:14.864Z,7.89
2018-04-12T04:32:19.173Z,7.92
2018-04-12T04:33:23.671Z,7.91
2018-04-12T04:34:28.070Z,7.87
2018-04-12T04:35:32.152Z,7.85
2018-04-12T04:36:36.255Z,7.92
2018-04-12T04:37:40.366Z,7.92
2018-04-12T04:38:44.446Z,7.97
2018-04-12T04:39:48.681Z,7.96
2018-04-12T04:40:52.768Z,7.94
2018-04-12T04:41:57.178Z,7.97
2018-04-12T04:43:01.830Z,8.05
2018-04-12T04:44:05.909Z,8.07
2018-04-12T04:45:13.010Z,7.97
2018-04-12T04:46:17.209Z,7.98
2018-04-12T04:47:22.562Z,8.02
2018-04-12T04:48:26.669Z,7.95
2018-04-12T04:49:30.827Z,7.87
2018-04-12T04:50:34.984Z,7.83
2018-04-12T04:51:39.086Z,7.81
2018-04-12T04:52:43.188Z,7.78
2018-04-12T04:53:47.361Z,7.74
2018-04-12T04:54:51.812Z,7.71
2018-04-12T04:55:55.999Z,7.74
2018-04-12T04:57:00.391Z,7.77
2018-04-12T04:58:04.630Z,7.80
2018-04-12T04:59:08.787Z,7.86
2018-04-12T05:00:15.524Z,7.88
2018-04-12T05:01:20.136Z,7.91
2018-04-12T05:02:25.152Z,7.93
2018-04-12T05:03:29.370Z,8.02
2018-04-12T05:04:33.501Z,8.02
2018-04-12T05:05:37.791Z,8.06
2018-04-12T05:06:41.975Z,8.11
2018-04-12T05:07:46.196Z,8.12
2018-04-12T05:08:50.477Z,8.12
2018-04-12T05:09:54.688Z,8.14
2018-04-12T05:10:58.818Z,8.20
2018-04-12T05:12:04.104Z,8.21
2018-04-12T05:13:08.217Z,8.21
2018-04-12T05:14:12.406Z,8.23
2018-04-12T05:15:16.567Z,8.23
2018-04-12T05:16:20.679Z,8.27
2018-04-12T05:17:25.673Z,8.26
2018-04-12T05:18:30.180Z,8.25
2018-04-12T05:19:34.305Z,8.32
2018-04-12T05:20:38.406Z,8.29
2018-04-12T05:21:42.502Z,8.28
2018-04-12T05:22:46.798Z,8.32
2018-04-12T05:23:50.937Z,8.21
2018-04-12T05:24:55.097Z,8.16
2018-04-12T05:25:59.264Z,8.19
2018-04-12T05:27:03.461Z,8.18
2018-04-12T05:28:09.229Z,8.18
2018-04-12T05:29:13.481Z,8.17
2018-04-12T05:30:18.156Z,8.11
2018-04-12T05:31:23.629Z,8.07
2018-04-12T05:32:27.841Z,7.97
2018-04-12T05:33:32.037Z,7.96
2018-04-12T05:34:36.227Z,7.91
2018-04-12T05:35:40.325Z,7.94
2018-04-12T05:36:44.420Z,7.95
2018-04-12T05:37:48.582Z,7.98
2018-04-12T05:38:52.782Z,8.01
2018-04-12T05:39:56.926Z,7.98
2018-04-12T05:41:01.054Z,7.90
2018-04-12T05:42:05.159Z,7.88
2018-04-12T05:43:10.614Z,7.79
2018-04-12T05:44:14.719Z,7.79
2018-04-12T05:45:18.949Z,7.81
2018-04-12T05:46:23.407Z,7.90
2018-04-12T05:47:27.519Z,7.93
2018-04-12T05:48:31.705Z,7.97
2018-04-12T05:49:36.143Z,8.04
2018-04-12T05:50:40.257Z,8.05
2018-04-12T05:51:44.437Z,8.02
2018-04-12T05:52:48.630Z,7.99
2018-04-12T05:53:52.811Z,7.89
2018-04-12T05:54:57.041Z,7.85
2018-04-12T05:56:01.465Z,7.79
2018-04-12T05:57:05.709Z,7.68
2018-04-12T05:58:10.339Z,7.70
2018-04-12T05:59:15.353Z,7.80
2018-04-12T06:00:19.774Z,7.87
2018-04-12T06:01:24.082Z,7.85
2018-04-12T06:02:29.394Z,7.91
2018-04-12T06:03:33.750Z,7.97
2018-04-12T06:04:37.932Z,8.04
2018-04-12T06:05:42.073Z,8.05
2018-04-12T06:06:46.244Z,8.08
2018-04-12T06:07:50.475Z,8.08
2018-04-12T06:08:54.605Z,8.10
2018-04-12T06:09:58.731Z,8.14
2018-04-12T06:11:02.848Z,8.14
2018-04-12T06:12:07.067Z,8.08
2018-04-12T06:13:11.169Z,7.99
2018-04-12T06:14:16.607Z,7.94
2018-04-12T06:15:20.992Z,8.03
2018-04-12T06:16:25.408Z,7.96
2018-04-12T06:17:29.899Z,7.92
2018-04-12T06:18:34.348Z,7.90
2018-04-12T06:19:39.118Z,7.94
2018-04-12T06:20:43.628Z,7.99
2018-04-12T06:21:47.747Z,8.04
2018-04-12T06:22:51.936Z,8.04
2018-04-12T06:23:56.070Z,8.07
2018-04-12T06:25:00.193Z,8.11
2018-04-12T06:26:04.667Z,8.16
2018-04-12T06:27:08.770Z,8.21
2018-04-12T06:28:13.964Z,8.26
2018-04-12T06:29:18.116Z,8.30
2018-04-12T06:30:22.324Z,8.29
2018-04-12T06:31:26.476Z,8.27
2018-04-12T06:32:30.945Z,8.27
2018-04-12T06:33:35.753Z,8.39
2018-04-12T06:34:39.837Z,8.42
2018-04-12T06:35:43.943Z,8.45
2018-04-12T06:36:48.041Z,8.45
2018-04-12T06:37:52.238Z,8.43
2018-04-12T06:38:56.701Z,8.48
2018-04-12T06:40:00.832Z,8.49
2018-04-12T06:41:05.050Z,8.55
2018-04-12T06:42:09.186Z,8.59
2018-04-12T06:43:13.306Z,8.60
2018-04-12T06:44:17.551Z,8.58
2018-04-12T06:45:22.445Z,8.57
2018-04-12T06:46:26.961Z,8.57
2018-04-12T06:47:31.149Z,8.53
2018-04-12T06:48:35.265Z,8.58
2018-04-12T06:49:40.419Z,8.49
2018-04-12T06:50:44.519Z,8.50
2018-04-12T06:51:48.954Z,8.41
2018-04-12T06:52:53.250Z,8.43
2018-04-12T06:53:57.406Z,8.51
2018-04-12T06:55:01.530Z,8.47
2018-04-12T06:56:05.762Z,8.47
2018-04-12T06:57:09.916Z,8.51
2018-04-12T06:58:14.847Z,8.53
2018-04-12T06:59:18.968Z,8.61
2018-04-12T07:00:23.358Z,8.68
2018-04-12T07:01:27.514Z,8.79
2018-04-12T07:02:31.734Z,8.86
2018-04-12T07:03:35.912Z,8.89
2018-04-12T07:04:41.231Z,8.91
2018-04-12T07:05:45.403Z,8.90
2018-04-12T07:06:49.629Z,8.90
2018-04-12T07:09:07.533Z,9.05
2018-04-12T07:10:11.759Z,9.19
2018-04-12T07:11:16.563Z,9.23
2018-04-12T07:12:20.681Z,9.19
2018-04-12T07:13:24.877Z,9.10
2018-04-12T07:14:29.051Z,9.10
2018-04-12T07:15:33.234Z,9.13
2018-04-12T07:16:37.674Z,9.13
2018-04-12T07:17:42.463Z,9.13
2018-04-12T07:18:46.639Z,9.05
2018-04-12T07:19:51.061Z,9.07
2018-04-12T07:20:55.161Z,9.13
2018-04-12T07:21:59.253Z,9.15
2018-04-12T07:23:03.491Z,9.18
2018-04-12T07:24:07.965Z,9.21
2018-04-12T07:25:12.184Z,9.13
2018-04-12T07:26:16.327Z,9.09
2018-04-12T07:27:20.521Z,9.05
2018-04-12T07:28:25.603Z,9.12
2018-04-12T07:29:30.122Z,9.13
2018-04-12T07:30:34.617Z,9.19
2018-04-12T07:31:39.340Z,9.27
2018-04-12T07:32:43.433Z,9.35
2018-04-12T07:33:47.641Z,9.42
2018-04-12T07:34:51.879Z,9.46
2018-04-12T07:35:56.419Z,9.51
2018-04-12T07:37:00.645Z,9.52
2018-04-12T07:38:05.054Z,9.54
2018-04-12T07:39:09.291Z,9.46
2018-04-12T07:40:13.695Z,9.39
2018-04-12T07:41:18.014Z,9.35
2018-04-12T07:42:22.550Z,9.26
2018-04-12T07:43:27.677Z,9.34
2018-04-12T07:44:31.913Z,9.43
2018-04-12T07:45:36.352Z,9.43
2018-04-12T07:46:40.544Z,9.44
2018-04-12T07:47:45.552Z,9.37
2018-04-12T07:48:49.715Z,9.36
2018-04-12T07:49:54.049Z,9.38
2018-04-12T07:50:58.171Z,9.42
2018-04-12T07:52:02.458Z,9.47
2018-04-12T07:53:06.573Z,9.49
2018-04-12T07:54:10.799Z,9.51
2018-04-12T07:55:15.385Z,9.61
2018-04-12T07:56:19.620Z,9.61
2018-04-12T07:57:23.863Z,9.49
2018-04-12T07:58:27.981Z,9.44
2018-04-12T07:59:33.195Z,9.52
2018-04-12T08:00:37.815Z,9.66
2018-04-12T08:01:42.339Z,9.79
2018-04-12T08:02:46.533Z,9.91
2018-04-12T08:03:50.745Z,9.88
2018-04-12T08:04:55.005Z,9.78
2018-04-12T08:05:59.205Z,9.78
2018-04-12T08:07:03.519Z,9.88
2018-04-12T08:08:07.964Z,9.96
2018-04-12T08:09:12.107Z,10.05
2018-04-12T08:10:16.326Z,10.18
2018-04-12T08:11:20.569Z,10.11
2018-04-12T08:12:25.237Z,10.09
2018-04-12T08:13:29.385Z,10.08
2018-04-12T08:14:34.655Z,10.02
2018-04-12T08:15:39.433Z,10.12
2018-04-12T08:16:43.853Z,10.23
2018-04-12T08:17:48.760Z,10.26
2018-04-12T08:18:53.319Z,10.23
2018-04-12T08:19:59.364Z,10.16
2018-04-12T08:21:03.558Z,10.09
2018-04-12T08:22:07.793Z,10.14
2018-04-12T08:23:11.975Z,10.27
2018-04-12T08:24:16.231Z,10.47
2018-04-12T08:25:20.366Z,10.62
2018-04-12T08:26:24.526Z,10.71
2018-04-12T08:27:28.718Z,10.88
2018-04-12T08:28:32.913Z,11.01
2018-04-12T08:29:37.044Z,11.18
2018-04-12T08:30:41.994Z,11.17
2018-04-12T08:31:46.128Z,11.26
2018-04-12T08:32:50.253Z,11.24
2018-04-12T08:33:55.114Z,11.08
2018-04-12T08:34:59.345Z,11.00
2018-04-12T08:36:03.464Z,11.02
2018-04-12T08:37:07.978Z,11.03
2018-04-12T08:38:12.135Z,10.96
2018-04-12T08:39:16.278Z,10.85
2018-04-12T08:40:20.398Z,10.78
2018-04-12T08:41:24.851Z,10.61
2018-04-12T08:42:29.048Z,10.50
2018-04-12T08:43:33.454Z,10.58
2018-04-12T08:44:37.560Z,10.64
2018-04-12T08:45:42.114Z,10.59
2018-04-12T08:46:46.258Z,10.56
2018-04-12T08:47:50.408Z,10.56
2018-04-12T08:48:54.613Z,10.59
2018-04-12T08:49:59.880Z,10.60
2018-04-12T08:51:04.094Z,10.63
2018-04-12T08:52:08.245Z,10.66
2018-04-12T08:53:12.432Z,10.65
2018-04-12T08:54:16.595Z,10.60
2018-04-12T08:55:20.993Z,10.61
2018-04-12T08:56:25.229Z,10.66
2018-04-12T08:57:29.834Z,10.67
2018-04-12T08:58:34.029Z,10.67
2018-04-12T08:59:38.158Z,10.72
2018-04-12T09:00:42.587Z,10.81
2018-04-12T09:01:47.122Z,10.86
2018-04-12T09:02:51.247Z,11.06
2018-04-12T09:03:55.456Z,11.29
2018-04-12T09:05:00.542Z,11.55
2018-04-12T09:06:04.757Z,11.76
2018-04-12T09:07:08.869Z,11.92
2018-04-12T09:08:13.123Z,11.79
2018-04-12T09:09:17.401Z,11.71
2018-04-12T09:10:21.555Z,11.60
2018-04-12T09:11:25.705Z,11.68
2018-04-12T09:12:30.501Z,11.81
2018-04-12T09:13:35.058Z,11.87
2018-04-12T09:14:39.248Z,11.85
2018-04-12T09:15:43.787Z,11.87
2018-04-12T09:16:47.885Z,12.01
2018-04-12T09:17:52.035Z,12.00
2018-04-12T09:18:56.239Z,12.15
2018-04-12T09:20:00.997Z,12.34
2018-04-12T09:21:05.164Z,12.47
2018-04-12T09:22:09.265Z,12.54
2018-04-12T09:23:13.461Z,12.46
2018-04-12T09:24:17.583Z,12.43
2018-04-12T09:25:21.807Z,12.45
2018-04-12T09:26:27.319Z,12.50
2018-04-12T09:27:31.908Z,12.46
2018-04-12T09:28:36.151Z,12.53
2018-04-12T09:29:40.359Z,12.55
2018-04-12T09:30:44.934Z,12.61
2018-04-12T09:31:49.049Z,12.85
2018-04-12T09:32:53.185Z,12.95
2018-04-12T09:33:57.460Z,13.06
2018-04-12T09:35:01.582Z,13.05
2018-04-12T09:36:05.682Z,13.05
2018-04-12T09:38:09.660Z,12.76
2018-04-12T09:39:13.899Z,12.79
2018-04-12T09:40:18.073Z,12.89
2018-04-12T09:41:22.338Z,13.00
2018-04-12T09:42:26.518Z,13.14
2018-04-12T09:43:31.024Z,13.37
2018-04-12T09:44:35.819Z,13.49
2018-04-12T09:45:40.170Z,13.70
2018-04-12T09:46:44.285Z,13.68
2018-04-12T09:47:48.404Z,13.63
2018-04-12T09:48:52.594Z,13.71
2018-04-12T09:49:58.580Z,13.88
2018-04-12T09:51:02.723Z,14.12
2018-04-12T09:52:06.831Z,14.09
2018-04-12T09:53:11.056Z,13.96
2018-04-12T09:54:15.216Z,13.94
2018-04-12T09:55:19.330Z,14.06
2018-04-12T09:56:24.272Z,14.31
2018-04-12T09:57:28.396Z,14.59
2018-04-12T09:58:32.595Z,14.78
2018-04-12T09:59:36.730Z,14.91
2018-04-12T10:00:41.777Z,14.98
2018-04-12T10:01:50.690Z,14.97
2018-04-12T10:02:56.747Z,15.04
2018-04-12T10:04:02.954Z,14.96
2018-04-12T10:05:07.372Z,14.86
2018-04-12T10:06:11.914Z,14.76
2018-04-12T10:07:17.266Z,15.02
2018-04-12T10:08:25.726Z,15.23
2018-04-12T10:09:30.370Z,15.46
2018-04-12T10:10:34.557Z,15.45
2018-04-12T10:11:38.656Z,15.32
2018-04-12T10:12:42.846Z,15.21
2018-04-12T10:13:48.300Z,15.32
2018-04-12T10:14:52.424Z,15.21
2018-04-12T10:15:56.869Z,15.14
2018-04-12T10:17:01.880Z,15.34
2018-04-12T10:18:06.072Z,15.36
2018-04-12T10:19:10.579Z,15.36
2018-04-12T10:20:15.082Z,15.26
2018-04-12T10:21:19.241Z,15.10
2018-04-12T10:22:23.411Z,15.13
2018-04-12T10:23:27.572Z,15.37
2018-04-12T10:24:32.305Z,15.35
2018-04-12T10:25:36.479Z,15.24
2018-04-12T10:26:40.921Z,15.33
2018-04-12T10:27:45.032Z,15.46
2018-04-12T10:28:49.312Z,15.44
2018-04-12T10:29:53.452Z,15.45
2018-04-12T10:30:58.011Z,15.67
2018-04-12T10:32:02.318Z,15.69
2018-04-12T10:33:06.454Z,15.95
2018-04-12T10:34:10.710Z,16.26
2018-04-12T10:35:15.110Z,16.75
2018-04-12T10:36:19.496Z,17.42
2018-04-12T10:37:25.423Z,17.91
2018-04-12T10:38:29.514Z,17.96
2018-04-12T10:39:34.040Z,18.01
2018-04-12T10:40:38.398Z,17.81
2018-04-12T10:41:42.552Z,17.78
2018-04-12T10:42:46.664Z,17.90
2018-04-12T10:43:51.121Z,18.16
2018-04-12T10:44:55.300Z,18.51
2018-04-12T10:46:00.220Z,18.55
2018-04-12T10:47:04.727Z,18.42
2018-04-12T10:48:08.880Z,18.54
2018-04-12T10:49:13.080Z,18.50
2018-04-12T10:50:17.234Z,18.41
2018-04-12T10:51:21.417Z,18.11
2018-04-12T10:52:25.845Z,18.29
2018-04-12T10:53:30.029Z,18.30
2018-04-12T10:54:34.230Z,18.34
2018-04-12T10:55:38.335Z,18.31
2018-04-12T10:56:42.571Z,18.23
2018-04-12T10:57:46.789Z,18.26
2018-04-12T10:58:51.313Z,18.39
2018-04-12T11:01:13.687Z,17.99
2018-04-12T11:02:18.159Z,18.13
2018-04-12T11:03:22.266Z,18.04
2018-04-12T11:04:26.514Z,18.18
2018-04-12T11:05:31.401Z,18.33
2018-04-12T11:06:35.487Z,18.41
2018-04-12T11:07:39.609Z,18.49
2018-04-12T11:08:43.826Z,18.46
2018-04-12T11:09:47.956Z,18.33
2018-04-12T11:10:52.184Z,18.17
2018-04-12T11:11:56.664Z,18.11
2018-04-12T11:13:00.857Z,18.20
2018-04-12T11:14:05.023Z,18.19
2018-04-12T11:15:09.168Z,18.05
2018-04-12T11:16:13.465Z,18.07
2018-04-12T11:17:18.026Z,18.08
2018-04-12T11:18:22.615Z,18.05
2018-04-12T11:19:27.078Z,18.38
2018-04-12T11:20:31.867Z,18.62
2018-04-12T11:21:36.056Z,18.77
2018-04-12T11:22:40.258Z,19.07
2018-04-12T11:23:45.382Z,19.36
2018-04-12T11:24:49.532Z,19.28
2018-04-12T11:25:53.640Z,19.00
2018-04-12T11:26:57.748Z,19.20
2018-04-12T11:28:01.865Z,19.29
2018-04-12T11:29:06.040Z,19.65
2018-04-12T11:31:19.784Z,20.07
2018-04-12T11:32:24.001Z,20.35
2018-04-12T11:33:29.197Z,20.44
2018-04-12T11:34:33.623Z,20.51
2018-04-12T11:35:37.757Z,20.25
2018-04-12T11:36:42.680Z,20.12
2018-04-12T11:37:46.791Z,19.93
2018-04-12T11:38:50.989Z,19.84
2018-04-12T11:39:55.119Z,19.48
2018-04-12T11:40:59.349Z,19.21
2018-04-12T11:42:03.503Z,18.87
2018-04-12T11:43:07.917Z,18.79
2018-04-12T11:44:12.693Z,18.66
2018-04-12T11:45:17.148Z,18.86
2018-04-12T11:46:21.397Z,19.31
2018-04-12T11:47:25.557Z,19.35
2018-04-12T11:48:29.789Z,19.21
2018-04-12T11:49:34.268Z,18.92
2018-04-12T11:50:38.379Z,18.92
2018-04-12T11:51:43.503Z,18.65
2018-04-12T11:52:47.688Z,18.53
2018-04-12T11:53:51.853Z,18.68
2018-04-12T11:54:56.083Z,19.11
2018-04-12T11:56:00.510Z,19.24
2018-04-12T11:57:05.110Z,19.28
2018-04-12T11:58:09.569Z,19.35
2018-04-12T11:59:13.774Z,19.03
2018-04-12T12:00:17.917Z,18.90
2018-04-12T12:01:23.473Z,18.42
2018-04-12T12:02:28.013Z,18.03
2018-04-12T12:03:32.165Z,17.87
2018-04-12T12:04:36.476Z,17.61
2018-04-12T12:05:40.610Z,17.44
2018-04-12T12:06:44.791Z,17.48
2018-04-12T12:07:48.907Z,17.40
2018-04-12T12:08:53.122Z,17.29
2018-04-12T12:09:57.278Z,17.07
2018-04-12T12:11:01.468Z,16.83
2018-04-12T12:12:05.683Z,16.66
2018-04-12T12:13:09.915Z,16.62
2018-04-12T12:14:14.124Z,16.72
2018-04-12T12:15:20.462Z,16.87
2018-04-12T12:16:25.504Z,16.73
2018-04-12T12:17:29.729Z,16.59
2018-04-12T12:18:34.068Z,16.58
2018-04-12T12:19:38.262Z,16.62
2018-04-12T12:20:42.386Z,16.68
2018-04-12T12:21:46.504Z,16.76
2018-04-12T12:22:50.741Z,16.69
2018-04-12T12:23:54.994Z,16.56
2018-04-12T12:24:59.173Z,16.56
2018-04-12T12:26:03.687Z,16.60
2018-04-12T12:27:07.777Z,16.71
2018-04-12T12:28:11.948Z,16.82
2018-04-12T12:29:16.035Z,16.83
2018-04-12T12:30:20.506Z,16.68
2018-04-12T12:31:25.886Z,16.62
2018-04-12T12:32:30.337Z,16.70
2018-04-12T12:33:34.834Z,16.77
2018-04-12T12:34:39.675Z,16.69
2018-04-12T12:35:43.871Z,16.74
2018-04-12T12:36:48.133Z,16.83
2018-04-12T12:37:52.228Z,17.04
2018-04-12T12:38:56.673Z,17.13
2018-04-12T12:40:00.909Z,17.11
2018-04-12T12:41:05.057Z,17.06
2018-04-12T12:42:09.210Z,17.06
2018-04-12T12:43:13.364Z,17.06
2018-04-12T12:44:17.622Z,17.15
2018-04-12T12:45:21.961Z,17.30
2018-04-12T12:46:27.082Z,17.43
2018-04-12T12:47:31.205Z,17.42
2018-04-12T12:48:35.486Z,17.43
2018-04-12T12:49:39.619Z,17.43
2018-04-12T12:50:44.627Z,17.49
2018-04-12T12:51:49.228Z,17.54
2018-04-12T12:52:53.350Z,17.42
2018-04-12T12:53:57.464Z,17.46
2018-04-12T12:55:01.556Z,17.55
2018-04-12T12:56:05.768Z,17.74
2018-04-12T12:57:09.969Z,17.81
2018-04-12T12:58:14.463Z,17.76
2018-04-12T12:59:18.619Z,17.72
2018-04-12T13:00:22.898Z,17.73
2018-04-12T13:01:27.951Z,17.77
2018-04-12T13:02:32.121Z,17.76
2018-04-12T13:03:36.428Z,17.70
2018-04-12T13:04:40.887Z,17.66
2018-04-12T13:05:45.104Z,17.64
2018-04-12T13:06:49.300Z,17.60
2018-04-12T13:07:53.404Z,17.53
2018-04-12T13:08:57.624Z,17.58
2018-04-12T13:10:01.877Z,17.70
2018-04-12T13:11:06.348Z,17.77
2018-04-12T13:12:10.527Z,17.77
2018-04-12T13:13:14.759Z,17.87
2018-04-12T13:14:18.894Z,17.87
2018-04-12T13:15:23.395Z,17.98
2018-04-12T13:16:27.673Z,17.99
2018-04-12T13:17:31.791Z,18.13
2018-04-12T13:18:36.766Z,18.20
2018-04-12T13:19:40.874Z,18.33
2018-04-12T13:20:45.864Z,18.52
2018-04-12T13:21:50.004Z,18.48
2018-04-12T13:22:54.111Z,18.58
2018-04-12T13:23:58.620Z,18.53
2018-04-12T13:25:02.838Z,18.53
2018-04-12T13:26:07.062Z,18.51
2018-04-12T13:27:11.273Z,18.64
2018-04-12T13:28:15.465Z,18.87
2018-04-12T13:29:19.580Z,19.34
2018-04-12T13:30:24.076Z,19.76
2018-04-12T13:31:28.349Z,19.99
2018-04-12T13:32:32.507Z,19.99
2018-04-12T13:33:37.449Z,20.01
2018-04-12T13:34:41.974Z,19.81
2018-04-12T13:35:46.109Z,19.70
2018-04-12T13:36:50.326Z,19.72
2018-04-12T13:37:54.454Z,19.66
2018-04-12T13:38:58.571Z,19.85
2018-04-12T13:40:02.832Z,20.02
2018-04-12T13:41:07.252Z,20.39
2018-04-12T13:42:11.530Z,21.12
2018-04-12T13:43:15.796Z,21.70
2018-04-12T13:44:19.998Z,21.97
2018-04-12T13:45:24.370Z,22.52
2018-04-12T13:46:28.717Z,23.14
2018-04-12T13:47:33.450Z,23.44
2018-04-12T13:48:37.644Z,23.35
2018-04-12T13:49:41.774Z,23.52
2018-04-12T13:50:45.908Z,23.73
2018-04-12T13:51:50.197Z,23.57
2018-04-12T13:52:54.345Z,23.12
2018-04-12T13:53:58.523Z,23.75
2018-04-12T13:55:02.671Z,24.48
2018-04-12T13:56:06.776Z,25.25
2018-04-12T13:57:10.969Z,26.16
2018-04-12T13:58:15.101Z,26.94
2018-04-12T13:59:19.277Z,26.44
2018-04-12T14:00:24.047Z,26.76
2018-04-12T14:01:28.346Z,25.96
2018-04-12T14:02:32.461Z,25.94
2018-04-12T14:03:36.703Z,26.46
2018-04-12T14:04:41.004Z,26.76
2018-04-12T14:05:45.497Z,26.50
2018-04-12T14:06:49.931Z,26.98
2018-04-12T14:07:54.409Z,27.24
2018-04-12T14:08:58.543Z,27.51
2018-04-12T14:10:02.758Z,27.58
2018-04-12T14:11:06.965Z,26.18
2018-04-12T14:12:11.142Z,25.82
2018-04-12T14:13:15.581Z,25.94
2018-04-12T14:14:19.689Z,26.10
2018-04-12T14:15:24.182Z,26.13
2018-04-12T14:16:28.399Z,25.96
2018-04-12T14:17:32.519Z,25.31
2018-04-12T14:18:36.647Z,24.62
2018-04-12T14:19:41.346Z,24.50
2018-04-12T14:20:45.628Z,24.57
2018-04-12T14:21:50.053Z,24.16
2018-04-12T14:22:54.178Z,23.79
2018-04-12T14:23:59.289Z,23.35
2018-04-12T14:25:03.479Z,23.35
2018-04-12T14:26:07.598Z,23.73
2018-04-12T14:27:11.718Z,24.76
2018-04-12T14:28:15.901Z,25.13
2018-04-12T14:29:20.079Z,25.46
2018-04-12T14:30:24.695Z,25.88
2018-04-12T14:31:29.117Z,26.03
2018-04-12T14:32:33.636Z,26.38
2018-04-12T14:33:37.751Z,25.53
2018-04-12T14:34:42.239Z,25.24
2018-04-12T14:35:46.542Z,25.96
2018-04-12T14:36:50.657Z,26.14
2018-04-12T14:37:55.373Z,25.98
2018-04-12T14:39:00.211Z,26.33
2018-04-12T14:40:04.408Z,25.45
2018-04-12T14:41:08.633Z,24.65
2018-04-12T14:42:12.934Z,24.35
2018-04-12T14:43:17.058Z,24.59
2018-04-12T14:44:21.524Z,24.27
2018-04-12T14:45:25.642Z,24.92
2018-04-12T14:46:29.856Z,25.25
2018-04-12T14:47:34.033Z,24.97
2018-04-12T14:48:38.163Z,24.42
2018-04-12T14:49:42.657Z,25.19
2018-04-12T14:50:46.934Z,24.93
2018-04-12T14:51:51.079Z,25.11
2018-04-12T14:52:55.988Z,24.58
2018-04-12T14:54:00.091Z,24.75
2018-04-12T14:55:04.229Z,24.32
2018-04-12T14:56:08.789Z,23.81
2018-04-12T14:57:13.045Z,23.52
2018-04-12T14:58:17.191Z,23.29
2018-04-12T14:59:21.404Z,22.92
2018-04-12T15:00:26.237Z,23.28
2018-04-12T15:01:30.439Z,24.29
2018-04-12T15:02:34.567Z,24.94
2018-04-12T15:03:38.703Z,25.93
2018-04-12T15:04:42.860Z,26.67
2018-04-12T15:05:47.406Z,26.80
2018-04-12T15:06:51.743Z,26.06
2018-04-12T15:07:56.283Z,26.28
2018-04-12T15:09:00.408Z,26.24
2018-04-12T15:10:05.339Z,27.11
2018-04-12T15:11:09.455Z,27.01
2018-04-12T15:12:13.631Z,27.03
2018-04-12T15:13:17.848Z,27.07
2018-04-12T15:14:22.325Z,27.14
2018-04-12T15:15:26.829Z,26.90
2018-04-12T15:16:31.051Z,26.80
2018-04-12T15:17:35.187Z,26.08
2018-04-12T15:18:39.322Z,24.87
2018-04-12T15:19:43.459Z,24.00
2018-04-12T15:20:47.967Z,22.73
2018-04-12T15:21:52.173Z,22.28
2018-04-12T15:22:56.316Z,21.63
2018-04-12T15:24:00.457Z,21.21
2018-04-12T15:25:04.838Z,21.10
2018-04-12T15:26:09.227Z,21.00
2018-04-12T15:27:13.910Z,21.03
2018-04-12T15:28:18.088Z,21.16
2018-04-12T15:29:22.354Z,21.37
2018-04-12T15:30:26.816Z,21.47
2018-04-12T15:31:31.016Z,21.36
2018-04-12T15:32:35.142Z,21.33
2018-04-12T15:33:39.629Z,21.53
2018-04-12T15:34:43.962Z,21.59
2018-04-12T15:35:48.078Z,21.52
2018-04-12T15:36:52.299Z,21.19
2018-04-12T15:37:56.476Z,21.18
2018-04-12T15:39:01.079Z,21.06
2018-04-12T15:40:05.733Z,21.04
2018-04-12T15:41:10.037Z,21.05
2018-04-12T15:42:14.230Z,21.19
2018-04-12T15:43:18.529Z,21.14
2018-04-12T15:44:23.257Z,20.93
2018-04-12T15:45:27.719Z,20.84
2018-04-12T15:46:31.867Z,20.70
2018-04-12T15:47:35.993Z,20.55
2018-04-12T15:48:40.129Z,20.51